Atlantic Aquarius — VRDX6 — position and weather

sailwx.info

Track history (hours):
 
Tides and Currents Weather Stations Pressure Air Temp Water Temp Dewpoint Dewpoint Depression Visibility Wind Speed Wind Dir Waves Ship Positions

Atlantic Aquarius

Last reported at 2016-Jul-12 09:24 UTC. Time now 2016-Jul-26 21:53 UTC.
Position N 29°37' W 093°49'.
Warning: this ship's position is 14 days out of date.

Length 183 m; draft 12.1 m.

Type: Tanker. MMSI: 477071400.

Date/timePositionNaut miles runAvg speedWind from/ knotsBaromVisibWave heightAir tempDewpointWater temp
2016-Jul-12 09:24N 29°37' W 093°49'8 8.9
2016-Jul-12 08:33N 29°44' W 093°52'7 7.2
2016-Jul-12 07:33N 29°50' W 093°57'7 6.6
2016-Jul-12 06:32N 29°55' W 093°53'3 3.3
2016-Jul-12 05:29N 29°59' W 093°53'  
2016-Jul-09 06:32N 29°59' W 093°53'8 4.1
2016-Jul-09 04:34N 29°51' W 093°57'9 8.0
2016-Jul-09 03:26N 29°43' W 093°52'  
2016-Jul-02 18:32N 09°47' W 079°57'1313.7
2016-Jul-02 17:33N 09°34' W 079°56'1313.0
2016-Jul-02 16:33N 09°21' W 079°55'4 4.1
2016-Jul-02 15:33N 09°17' W 079°55'0 0.5
2016-Jul-02 14:33N 09°16' W 079°55'1 0.7
2016-Jul-02 13:33N 09°15' W 079°55'2 1.8
2016-Jul-02 12:33N 09°14' W 079°55'3 3.0
2016-Jul-02 11:32N 09°12' W 079°53'11 9.1
2016-Jul-02 10:22N 09°07' W 079°43'  
Track history (hours):
 
Tides and Currents Weather Stations Pressure Air Temp Water Temp Dewpoint Dewpoint Depression Visibility Wind Speed Wind Dir Waves Ship Positions

Atlantic Aquarius

Last reported at 2016-Jul-12 09:24 UTC. Time now 2016-Jul-26 21:53 UTC.
Position N 29°37' W 093°49'.
Warning: this ship's position is 14 days out of date.

Length 183 m; draft 12.1 m.

Type: Tanker. MMSI: 477071400.

Date/timePositionNaut miles runAvg speedWind from/ knotsBaromVisibWave heightAir tempDewpointWater temp
2016-Jul-12 09:24N 29°37' W 093°49'8 8.9
2016-Jul-12 08:33N 29°44' W 093°52'7 7.2
2016-Jul-12 07:33N 29°50' W 093°57'7 6.6
2016-Jul-12 06:32N 29°55' W 093°53'3 3.3
2016-Jul-12 05:29N 29°59' W 093°53'  
2016-Jul-09 06:32N 29°59' W 093°53'8 4.1
2016-Jul-09 04:34N 29°51' W 093°57'9 8.0
2016-Jul-09 03:26N 29°43' W 093°52'  
2016-Jul-02 18:32N 09°47' W 079°57'1313.7
2016-Jul-02 17:33N 09°34' W 079°56'1313.0
2016-Jul-02 16:33N 09°21' W 079°55'4 4.1
2016-Jul-02 15:33N 09°17' W 079°55'0 0.5
2016-Jul-02 14:33N 09°16' W 079°55'1 0.7
2016-Jul-02 13:33N 09°15' W 079°55'2 1.8
2016-Jul-02 12:33N 09°14' W 079°55'3 3.0
2016-Jul-02 11:32N 09°12' W 079°53'11 9.1
2016-Jul-02 10:22N 09°07' W 079°43'  

Dump ship's entire track history